Arlington, CA

3:17 AM PDT on August 26, 2016 (GMT -0700)
Indiana/Wickham | | Change Station

Elev 771 ft 33.89 °N, 117.47 °W | Updated 4 minutes ago

Overcast
Overcast
61.4 °F
Feels Like 61.4 °F
N
0.0
Wind Variable Wind from SW

Today
High -- | Low -- °F
--% Chance of Precip.
Yesterday
High -- | Low -- °F
Precip. -- in
Pressure 29.88 in
Visibility 9.0 miles
Clouds Mostly Cloudy 900 ft
Overcast 1500 ft
Dew Point 59 °F
Humidity 91%
Rainfall 0.00 in
Snow Depth Not available.
6:19 AM 7:22 PM
Waning Crescent, 36% visible
METAR KRAL 260953Z AUTO 00000KT 9SM BKN009 OVC015 17/14 A2993 RMK AO2 SLP119 T01720144
Pressure 29.88 in
Visibility 9.0 miles
Clouds Mostly Cloudy 900 ft
Overcast 1500 ft
Dew Point 59 °F
Humidity 91%
Rainfall 0.00 in
Snow Depth Not available.
6:19 AM 7:22 PM
Waning Crescent, 36% visible
METAR KRAL 260953Z AUTO 00000KT 9SM BKN009 OVC015 17/14 A2993 RMK AO2 SLP119 T01720144

10-Day Weather Forecast

Almanac

Astronomy

Aug. 26, 2016 Rise Set
Actual Time
Civil Twilight
Nautical Twilight
Astronomical Twilight
Moon
Length of Visible Light
Length of Day
Tomorrow will be .
, % of the Moon is Illuminated

Today's Extremes

State Highs State Lows

Community

WunderPhotos

Upload Photos

1,935,069 photos uploaded!

WunderBlog® & News

Nearby

Air Quality

  Air Quality AQ Index Pollutant
Not available.

Snow Depth

Station Depth Elevation

Earthquake Activity

City Distance Mag. Time & Date
Minimum magnitude displayed is 2.5.

Coastal Water Temperatures

Place Temperature

Stations

Nearby Weather Stations

Station Location Temp. Windchill Dew Point Humidity Wind Precip. Elev Updated Type
                   

Watches & Warnings

There are currently no watches in effect.